Mount Vernon, Virginia
Current Conditions -  °F | °C
As of 4:58 PM on Sunday 23 Nov 2014 (Local Time) from KDAA Reporting Station
Broken Clouds Broken Clouds  
Wind Chill: 12°   Ceiling: 16000
Heat Index: 12°   Visibility: 10mi
Dew Point:   Wind: 3mph
Humidity: 49%   Direction: 120°ESE
Pressure: 30.07"   Gusts: NA
Location:  38.71°N, 77.08°W
Report Text: KDAA 232158Z AUTO 12003KT 10SM BKN160 12/02 A3007 RMK AO2 SLP186 T01190015
Loading
Personal Weather Stations






























Interactive Weather Map New forecast layout! Learn more

10-Day Weather Forecast

Advertisements
Track Severe Weather on mobile